Home > Products > Valid Products > TAF

000
FTUS43 KARX 250520
TAFLSE
TAF
KLSE 250520Z 2506/2606 29005KT P6SM SCT020
      TEMPO 2506/2507 BKN020
     FM250900 VRB03KT 2SM BR SKC
     FM251400 27008KT P6SM SCT020
     FM251800 30015G24KT P6SM SCT150
     FM260000 34006KT P6SM SCT150=



000
FTUS43 KARX 250520
TAFRST
TAF
KRST 250520Z 2506/2606 30006KT P6SM SCT080
     FM250700 28006KT 2SM BR SKC
     FM250900 28006KT 1SM BR SCT002
      TEMPO 2509/2512 1/2SM FG BKN002
     FM251330 28008KT 3SM BR SCT006
     FM251400 28010KT P6SM SCT020
     FM251700 29016G24KT P6SM SCT150
     FM260000 34009KT P6SM SCT150=



000
FTUS43 KARX 250139 AAA
TAFRST
TAF AMD
KRST 250139Z 2502/2524 32009KT P6SM OVC015
     FM250300 30006KT P6SM SCT080
     FM250800 25005KT 2SM BR SKC
     FM251400 27010KT P6SM SCT020
     FM251700 29016G26KT P6SM SCT150=



000
FTUS43 KARX 250132 AAA
TAFLSE
TAF AMD
KLSE 250132Z 2502/2524 VRB04KT 4SM BR OVC020
     FM250400 29005KT P6SM SCT020
     FM250900 VRB03KT 2SM BR SKC
     FM251400 27008KT P6SM SCT020
     FM251800 30015G24KT P6SM SCT150=



000
FTUS43 KARX 242332
TAFLSE
TAF
KLSE 242332Z 2500/2524 VRB04KT 3SM -DZ BR OVC008
      TEMPO 2500/2501 1SM -DZ BR OVC004
     FM250200 27007KT P6SM BKN012
     FM250400 29005KT P6SM SCT020
     FM250900 VRB03KT 2SM BR SKC
     FM251400 27008KT P6SM SCT020
     FM251800 30015G24KT P6SM SCT150=



000
FTUS43 KARX 242332
TAFRST
TAF
KRST 242332Z 2500/2524 30009KT 5SM HZ BKN012
     FM250200 30006KT P6SM SKC
     FM250800 25005KT 2SM BR SKC
     FM251400 27010KT P6SM SCT020
     FM251700 29016G26KT P6SM SCT150=



000
FTUS43 KARX 242259 AAB
TAFLSE
TAF AMD
KLSE 242259Z 2423/2518 VRB04KT 1 1/2SM -DZ BR OVC004
     FM250200 27007KT P6SM BKN012
     FM250400 29005KT P6SM SCT020
     FM250900 VRB03KT 2SM BR SKC
     FM251400 27008KT P6SM SCT040=



000
FTUS43 KARX 242041 AAA
TAFLSE
TAF AMD
KLSE 242041Z 2421/2518 13008KT 2SM -RA BR OVC008
      TEMPO 2421/2501 6SM BR SCT010 OVC025
     FM250100 28007KT P6SM SCT015 BKN060
     FM250300 29005KT P6SM SKC
     FM250900 VRB03KT 2SM BR SKC
     FM251400 27008KT P6SM SCT040=



000
FTUS43 KARX 242028 AAB
TAFRST
TAF AMD
KRST 242028Z 2420/2518 14007KT 1 1/2SM BR OVC003
      TEMPO 2420/2423 5SM -SHRA BR SCT005 OVC020
     FM242300 31008KT P6SM SCT008 BKN050
     FM250100 30006KT P6SM SKC
     FM250800 25005KT 2SM BR SKC
     FM251400 27014KT P6SM SCT035=



000
FTUS43 KARX 241902 AAA
TAFRST
TAF AMD
KRST 241902Z 2419/2518 13010KT 2SM -RA BR OVC006
      TEMPO 2419/2421 5SM -RA BR OVC020
     FM242100 31008KT P6SM BKN012
     FM250100 30006KT P6SM SKC
     FM250800 25005KT 2SM BR SKC
     FM251400 27014KT P6SM SCT035=



000
FTUS43 KARX 241731
TAFRST
TAF
KRST 241731Z 2418/2518 12014KT 4SM -SHRA BR OVC012
      TEMPO 2418/2421 BKN009 OVC020
     FM242100 31008KT P6SM BKN012
     FM250100 30006KT P6SM SKC
     FM250800 25005KT 2SM BR SKC
     FM251400 27014KT P6SM SCT035=



000
FTUS43 KARX 241731
TAFLSE
TAF
KLSE 241731Z 2418/2518 13010KT 4SM -RA BR BKN015 OVC035
      TEMPO 2418/2421 6SM -RA BR SCT015 OVC035
     FM242100 18006KT 6SM BR OVC018
     FM250100 28007KT P6SM SKC
     FM250400 29005KT P6SM SKC
     FM250900 VRB03KT 2SM BR SKC
     FM251400 27008KT P6SM SCT040=



000
FTUS43 KARX 241609 AAC
TAFLSE
TAF AMD
KLSE 241609Z 2416/2512 15010KT 5SM -RA OVC045
      TEMPO 2416/2419 3SM -RA BR BKN015 OVC040
     FM242100 18007KT 3SM RA BR OVC008
     FM250000 28007KT P6SM OVC015
     FM250400 29006KT P6SM SKC
     FM251000 VRB03KT 2SM BR SKC=



000
FTUS43 KARX 241603 AAB
TAFRST
TAF AMD
KRST 241603Z 2416/2512 13019G27KT 5SM -RA BR BKN008 OVC025
      TEMPO 2416/2418 3SM -RA BR SCT008 OVC035
     FM241800 14010KT 3SM -RA BR OVC007
     FM242200 31010KT P6SM BKN012
     FM250100 30009KT P6SM SKC
     FM250700 25005KT 2SM BR SKC=



000
FTUS43 KARX 241407 AAA
TAFRST
TAF AMD
KRST 241407Z 2414/2512 13019G27KT 4SM -RA BR OVC045
      TEMPO 2414/2418 2SM TSRA BR BKN012 OVC030CB
     FM241800 14010KT 3SM -RA BR OVC007
     FM242200 31010KT P6SM BKN012
     FM250100 30009KT P6SM SKC
     FM250700 25005KT 2SM BR SKC=



000
FTUS43 KARX 241401 AAB
TAFLSE
TAF AMD
KLSE 241401Z 2414/2512 16007KT 3SM RA BR OVC050
      TEMPO 2414/2417 2SM RA BR BKN025 OVC040
     FM242100 18007KT 3SM RA BR OVC008
     FM250000 28007KT P6SM OVC015
     FM250400 29006KT P6SM SKC
     FM251000 VRB03KT 2SM BR SKC=



000
FTUS43 KARX 241231 AAA
TAFLSE
TAF AMD
KLSE 241231Z 2413/2512 15012KT 6SM -RA BR BKN040
     FM241300 16007KT 4SM RA BR BKN035
      TEMPO 2413/2416 2SM RA BR BKN025
     FM242100 18007KT 3SM RA BR OVC008
     FM250000 28007KT P6SM OVC015
     FM250400 29006KT P6SM SKC
     FM251000 VRB03KT 2SM BR SKC=



000
FTUS43 KARX 241142 CCA
TAFRST
TAF COR
KRST 241142Z 2412/2512 13018KT 3SM RA BR BKN050
      TEMPO 2412/2414 2SM TSRA BR BKN030CB
     FM241400 13012KT 5SM -RA BKN012
     FM241800 14007KT 3SM -RA BR OVC007
     FM242200 31010KT P6SM BKN012
     FM250100 30009KT P6SM SKC
     FM250700 25005KT 2SM BR SKC=



000
FTUS43 KARX 241134
TAFLSE
TAF
KLSE 241134Z 2412/2512 15012KT 6SM -RA BR BKN040
     FM241600 16009KT 4SM RA BR BKN025
     FM242100 18007KT 3SM RA BR OVC008
     FM250000 28007KT P6SM OVC015
     FM250400 29006KT P6SM SKC
     FM251000 VRB03KT 2SM BR SKC=



000
FTUS43 KARX 241134
TAFRST
TAF
KRST 241134Z 2412/2512 13018KT 3SM RA BR BKN050
     FM241400 13012KT 5SM -RA BKN012
     FM241800 14007KT 3SM -RA BR OVC007
     FM242200 31010KT P6SM BKN012
     FM250100 30009KT P6SM SKC
     FM250700 25005KT 2SM BR SKC=



000
FTUS43 KARX 240959 AAA
TAFRST
TAF AMD
KRST 240959Z 2410/2506 13018G26KT 4SM -RA VCTS OVC025CB
     FM241200 12016G20KT 2SM -RA BR OVC007
     FM241600 13012KT 4SM -RA OVC004
     FM242100 26010KT P6SM OVC012
     FM250300 30009KT P6SM SCT020=



000
FTUS43 KARX 240520
TAFRST
TAF
KRST 240520Z 2406/2506 13017G24KT P6SM -SHRA OVC035
     FM240900 13018G24KT 5SM -RA OVC025
     FM241100 12016G20KT 2SM -RA BR OVC007
     FM241600 13012KT 4SM -RA OVC004
     FM242100 26010KT P6SM OVC012
     FM250300 30009KT P6SM SCT020=



000
FTUS43 KARX 240520
TAFLSE
TAF
KLSE 240520Z 2406/2506 13012G18KT P6SM -SHRA OVC035
     FM241200 13012G18KT 4SM -RA BR OVC012
     FM241800 13009KT 6SM -RA OVC008
     FM250100 26006KT P6SM OVC015
     FM250500 31006KT P6SM SCT025=



000
FTUS43 KARX 240302 AAA
TAFRST
TAF AMD
KRST 240302Z 2403/2424 13017G24KT P6SM VCSH OVC035
     FM240900 13018G24KT 5SM -RA OVC025
     FM241100 12016G20KT 2SM -RA BR OVC007
     FM241600 13012KT 4SM -RA OVC004
     FM242100 26010KT P6SM OVC012=



000
FTUS43 KARX 232320
TAFLSE
TAF
KLSE 232320Z 2400/2424 12010KT P6SM -SHRA OVC060
     FM240200 13012KT P6SM OVC060
     FM240700 13012G18KT P6SM -SHRA OVC035
     FM241200 13012G18KT 4SM -RA BR OVC015
     FM241800 13010KT 6SM -RA OVC008=



000
FTUS43 KARX 232320
TAFRST
TAF
KRST 232320Z 2400/2424 13016G24KT P6SM OVC050
     FM240600 12018G24KT P6SM -SHRA OVC025
     FM241100 12016G20KT 2SM -RA BR OVC007
     FM241600 13012KT 4SM -RA OVC004
     FM242100 26010KT P6SM OVC012=



000
FTUS43 KARX 231726
TAFLSE
TAF
KLSE 231726Z 2318/2418 16010G18KT P6SM -SHRA SCT060 OVC090
     FM240200 15012G20KT P6SM -RA OVC060
     FM240700 14012G19KT P6SM OVC035
     FM241000 13012KT 5SM -RA BR OVC015
     FM241600 12012KT 5SM -RA BR OVC013=



000
FTUS43 KARX 231726
TAFRST
TAF
KRST 231726Z 2318/2418 14014G25KT P6SM -RA BKN050 OVC070
     FM232200 14018G26KT P6SM OVC050
     FM240700 13019G24KT P6SM -RA OVC030
     FM240900 12014G20KT 4SM -RA BR OVC008
     FM241500 10012KT 5SM -RA BR OVC008=



000
FTUS43 KARX 231120
TAFRST
TAF
KRST 231120Z 2312/2412 13012G18KT P6SM VCSH BKN090
     FM231700 13015G22KT P6SM -SHRA OVC070
     FM232100 13018G26KT P6SM -SHRA OVC050
     FM240200 13016KT P6SM OVC030
     FM240900 12012KT 4SM -RA BR OVC009=



000
FTUS43 KARX 231120
TAFLSE
TAF
KLSE 231120Z 2312/2412 12006KT P6SM BKN150
     FM231700 15010G18KT P6SM VCSH OVC090
     FM232200 13012G20KT P6SM -SHRA OVC060
     FM240500 12010KT P6SM OVC035
     FM241000 11009KT 5SM -RA BR OVC018=



000
FTUS43 KARX 230520
TAFRST
TAF
KRST 230520Z 2306/2406 07006KT P6SM SCT250
     FM230900 13008KT P6SM BKN120
     FM231800 13015G22KT P6SM VCSH OVC050
     FM232100 13018G26KT P6SM -SHRA OVC035
     FM240300 13016KT P6SM OVC030=



000
FTUS43 KARX 230520
TAFLSE
TAF
KLSE 230520Z 2306/2406 04003KT P6SM SCT250
     FM231200 12006KT P6SM BKN150
     FM232000 13009KT P6SM VCSH OVC060
     FM232300 13009KT P6SM -SHRA OVC040
     FM240500 12010KT P6SM OVC035=



000
FTUS43 KARX 222333
TAFLSE
TAF
KLSE 222333Z 2300/2324 04003KT P6SM SCT250
     FM231200 12006KT P6SM BKN150
     FM231800 13009KT P6SM VCSH OVC060
     FM232200 13009KT P6SM -SHRA OVC040=



000
FTUS43 KARX 222333
TAFRST
TAF
KRST 222333Z 2300/2324 04007KT P6SM SCT250
     FM230900 13008KT P6SM BKN120
     FM231600 13015KT P6SM VCSH OVC050
     FM231900 13018G26KT P6SM -SHRA OVC035=



000
FTUS43 KARX 221847 AAA
TAFLSE
TAF AMD
KLSE 221847Z 2219/2318 32013KT P6SM SCT250
     FM230000 VRB03KT P6SM SCT250
     FM231200 12006KT P6SM BKN130
     FM231500 13007KT P6SM BKN070
     FM231700 13009KT P6SM VCSH OVC050=



000
FTUS43 KARX 221830 AAA
TAFRST
TAF AMD
KRST 221830Z 2219/2318 35015G25KT P6SM BKN250
     FM230000 04006KT P6SM BKN250
     FM230900 13008KT P6SM BKN150
     FM231200 13011KT P6SM BKN080
     FM231400 13015KT P6SM VCSH OVC050=



000
FTUS43 KARX 221723
TAFLSE
TAF
KLSE 221723Z 2218/2318 32013KT P6SM SKC
     FM230000 VRB03KT P6SM SCT250
     FM231200 12006KT P6SM BKN130
     FM231500 13007KT P6SM BKN070
     FM231700 13009KT P6SM VCSH OVC050=



000
FTUS43 KARX 221723
TAFRST
TAF
KRST 221723Z 2218/2318 35015KT P6SM SKC
     FM230000 04006KT P6SM SCT250
     FM230900 13008KT P6SM BKN150
     FM231200 13011KT P6SM BKN080
     FM231400 13015KT P6SM VCSH OVC050=



000
FTUS43 KARX 221123
TAFLSE
TAF
KLSE 221123Z 2212/2312 33009KT P6SM SKC
     FM221400 34010G18KT P6SM SKC
     FM230000 02004KT P6SM SCT250=



000
FTUS43 KARX 221123
TAFRST
TAF
KRST 221123Z 2212/2312 33011KT P6SM SKC
     FM221400 35013G20KT P6SM SKC
     FM230000 04005KT P6SM SCT250=



    US Dept of Commerce
    National Oceanic and Atmospheric Administration
    National Weather Service
    1325 East West Highway
    Silver Spring, MD 20910
    Page Author: NWS Internet Services Team
Disclaimer
Information Quality
Credits
Glossary
Privacy Policy
Freedom of Information Act (FOIA)
About Us
Career Opportunities